sensor_id;sensor_type;location;lat;lon;timestamp;pressure;altitude;pressure_sealevel;temperature;humidity
46724;BME280;32463;48.298;11.620;2022-12-20T10:37:14;96739.94;;;2.05;100.00
46724;BME280;32463;48.298;11.620;2022-12-20T10:39:45;96727.50;;;2.13;100.00
46724;BME280;32463;48.298;11.620;2022-12-20T10:44:59;96720.97;;;2.21;100.00
46724;BME280;32463;48.298;11.620;2022-12-20T10:47:40;96707.88;;;2.26;100.00
46724;BME280;32463;48.298;11.620;2022-12-20T10:52:38;96713.00;;;2.13;100.00
46724;BME280;32463;48.298;11.620;2022-12-20T10:55:32;96701.91;;;2.52;100.00
46724;BME280;32463;48.298;11.620;2022-12-20T10:58:21;96707.69;;;2.29;100.00
46724;BME280;32463;48.298;11.620;2022-12-20T11:01:03;96694.53;;;2.48;100.00
46724;BME280;32463;48.298;11.620;2022-12-20T11:03:30;96687.06;;;2.83;100.00
46724;BME280;32463;48.298;11.620;2022-12-20T11:06:02;96686.06;;;2.73;100.00
46724;BME280;32463;48.298;11.620;2022-12-20T11:08:30;96675.31;;;2.67;100.00
46724;BME280;32463;48.298;11.620;2022-12-20T11:11:20;96684.63;;;2.43;100.00
46724;BME280;32463;48.298;11.620;2022-12-20T11:13:48;96675.31;;;2.02;100.00
46724;BME280;32463;48.298;11.620;2022-12-20T11:16:35;96675.09;;;2.06;100.00
46724;BME280;32463;48.298;11.620;2022-12-20T11:19:20;96673.47;;;2.05;100.00
46724;BME280;32463;48.298;11.620;2022-12-20T11:24:55;96674.47;;;2.54;100.00
46724;BME280;32463;48.298;11.620;2022-12-20T11:27:30;96669.34;;;2.80;100.00
46724;BME280;32463;48.298;11.620;2022-12-20T11:41:25;96629.81;;;3.93;100.00
46724;BME280;32463;48.298;11.620;2022-12-20T11:47:07;96615.16;;;4.06;100.00
46724;BME280;32463;48.298;11.620;2022-12-20T11:50:09;96606.75;;;4.04;100.00
46724;BME280;32463;48.298;11.620;2022-12-20T11:52:46;96615.31;;;3.33;100.00
46724;BME280;32463;48.298;11.620;2022-12-20T11:55:26;96611.88;;;3.09;100.00
46724;BME280;32463;48.298;11.620;2022-12-20T11:58:30;96599.81;;;2.86;100.00
46724;BME280;32463;48.298;11.620;2022-12-20T12:01:03;96606.69;;;2.98;100.00
46724;BME280;32463;48.298;11.620;2022-12-20T12:03:36;96600.38;;;3.15;100.00
46724;BME280;32463;48.298;11.620;2022-12-20T12:09:05;96596.34;;;2.99;100.00
46724;BME280;32463;48.298;11.620;2022-12-20T12:11:39;96580.41;;;2.70;100.00
46724;BME280;32463;48.298;11.620;2022-12-20T12:14:14;96582.25;;;2.68;100.00
46724;BME280;32463;48.298;11.620;2022-12-20T12:16:45;96586.09;;;2.99;100.00
46724;BME280;32463;48.298;11.620;2022-12-20T12:19:13;96580.69;;;2.79;100.00
46724;BME280;32463;48.298;11.620;2022-12-20T12:21:54;96584.88;;;2.80;100.00
46724;BME280;32463;48.298;11.620;2022-12-20T12:24:30;96580.34;;;2.96;100.00
46724;BME280;32463;48.298;11.620;2022-12-20T12:26:58;96566.88;;;2.68;100.00
46724;BME280;32463;48.298;11.620;2022-12-20T12:29:27;96568.19;;;2.87;100.00
46724;BME280;32463;48.298;11.620;2022-12-20T12:32:09;96569.03;;;3.11;100.00
46724;BME280;32463;48.298;11.620;2022-12-20T12:42:44;96570.66;;;2.76;100.00
46724;BME280;32463;48.298;11.620;2022-12-20T12:48:10;96573.72;;;2.81;100.00
46724;BME280;32463;48.298;11.620;2022-12-20T12:50:45;96577.75;;;2.72;100.00
46724;BME280;32463;48.298;11.620;2022-12-20T12:53:19;96572.97;;;2.42;100.00
46724;BME280;32463;48.298;11.620;2022-12-20T12:55:50;96575.91;;;2.36;100.00
46724;BME280;32463;48.298;11.620;2022-12-20T13:00:55;96565.06;;;2.20;100.00
46724;BME280;32463;48.298;11.620;2022-12-20T13:03:44;96550.34;;;2.11;100.00
46724;BME280;32463;48.298;11.620;2022-12-20T13:11:33;96557.66;;;1.77;100.00
46724;BME280;32463;48.298;11.620;2022-12-20T13:16:43;96568.00;;;1.49;100.00
46724;BME280;32463;48.298;11.620;2022-12-20T13:27:25;96578.59;;;1.43;100.00
46724;BME280;32463;48.298;11.620;2022-12-20T13:29:59;96573.84;;;1.51;100.00
46724;BME280;32463;48.298;11.620;2022-12-20T13:37:53;96579.31;;;1.84;100.00
46724;BME280;32463;48.298;11.620;2022-12-20T13:40:29;96578.50;;;1.71;100.00
46724;BME280;32463;48.298;11.620;2022-12-20T13:43:03;96573.19;;;1.74;100.00
46724;BME280;32463;48.298;11.620;2022-12-20T13:45:31;96563.16;;;1.71;100.00
46724;BME280;32463;48.298;11.620;2022-12-20T13:48:02;96566.81;;;1.67;100.00
46724;BME280;32463;48.298;11.620;2022-12-20T13:50:34;96563.72;;;1.62;100.00
46724;BME280;32463;48.298;11.620;2022-12-20T13:53:05;96556.41;;;1.70;100.00
46724;BME280;32463;48.298;11.620;2022-12-20T13:55:38;96564.34;;;1.53;100.00
46724;BME280;32463;48.298;11.620;2022-12-20T13:58:13;96567.22;;;1.61;100.00
46724;BME280;32463;48.298;11.620;2022-12-20T14:00:41;96557.81;;;1.61;100.00
46724;BME280;32463;48.298;11.620;2022-12-20T14:03:20;96566.38;;;1.48;100.00
46724;BME280;32463;48.298;11.620;2022-12-20T14:05:48;96556.97;;;1.48;100.00
46724;BME280;32463;48.298;11.620;2022-12-20T14:08:20;96552.78;;;1.60;100.00
46724;BME280;32463;48.298;11.620;2022-12-20T14:10:47;96555.34;;;1.60;100.00
46724;BME280;32463;48.298;11.620;2022-12-20T14:13:31;96551.28;;;1.70;100.00
46724;BME280;32463;48.298;11.620;2022-12-20T14:16:06;96551.44;;;1.81;100.00
46724;BME280;32463;48.298;11.620;2022-12-20T14:18:33;96540.91;;;1.98;100.00
46724;BME280;32463;48.298;11.620;2022-12-20T14:21:02;96536.09;;;1.94;100.00
46724;BME280;32463;48.298;11.620;2022-12-20T14:23:39;96530.88;;;1.95;100.00
46724;BME280;32463;48.298;11.620;2022-12-20T14:26:10;96533.03;;;2.01;100.00
46724;BME280;32463;48.298;11.620;2022-12-20T14:28:40;96511.03;;;1.86;100.00
46724;BME280;32463;48.298;11.620;2022-12-20T14:36:28;96498.13;;;1.50;100.00
46724;BME280;32463;48.298;11.620;2022-12-20T14:38:56;96493.25;;;1.32;100.00
46724;BME280;32463;48.298;11.620;2022-12-20T14:41:35;96485.00;;;1.42;100.00
46724;BME280;32463;48.298;11.620;2022-12-20T14:46:33;96469.63;;;1.16;100.00
46724;BME280;32463;48.298;11.620;2022-12-20T14:51:42;96490.06;;;0.89;100.00
46724;BME280;32463;48.298;11.620;2022-12-20T14:54:17;96511.63;;;0.98;100.00
46724;BME280;32463;48.298;11.620;2022-12-20T14:56:47;96513.25;;;0.99;100.00
46724;BME280;32463;48.298;11.620;2022-12-20T14:59:22;96510.16;;;0.94;100.00
46724;BME280;32463;48.298;11.620;2022-12-20T15:01:50;96509.97;;;0.97;100.00
46724;BME280;32463;48.298;11.620;2022-12-20T15:04:30;96506.88;;;0.92;100.00
46724;BME280;32463;48.298;11.620;2022-12-20T15:06:58;96516.50;;;0.88;100.00
46724;BME280;32463;48.298;11.620;2022-12-20T15:09:24;96513.59;;;0.80;100.00
46724;BME280;32463;48.298;11.620;2022-12-20T15:11:51;96521.44;;;0.77;100.00
46724;BME280;32463;48.298;11.620;2022-12-20T15:14:35;96523.34;;;0.74;100.00
46724;BME280;32463;48.298;11.620;2022-12-20T15:17:08;96506.75;;;0.66;100.00
46724;BME280;32463;48.298;11.620;2022-12-20T15:19:34;96506.44;;;0.58;100.00
